Time;durP1;ratioP1;P1;durP2;ratioP2;P2;SDS_P1;SDS_P2;PMS_P1;PMS_P2;Temp;Humidity;BMP_temperature;BMP_pressure;BME280_temperature;BME280_humidity;BME280_pressure;Samples;Min_cycle;Max_cycle;Signal;HPM_P1;HPM_P2
2023/12/14 00:05:49;;;;;;;15.15;8.65;;;6.40;99.90;;;;;;20730709;28;20033;-41
2023/12/14 00:15:50;;;;;;;19.38;9.68;;;6.40;99.90;;;;;;20737359;28;20520;-41
2023/12/14 00:25:50;;;;;;;19.02;9.30;;;6.40;99.90;;;;;;20740275;28;20030;-40
2023/12/14 00:35:51;;;;;;;19.55;10.45;;;6.30;99.90;;;;;;20734546;28;20064;-41
2023/12/14 00:45:52;;;;;;;16.45;9.35;;;6.30;99.90;;;;;;20740254;28;20056;-41
2023/12/14 00:55:53;;;;;;;19.23;9.50;;;6.30;99.90;;;;;;20743743;28;20075;-41
2023/12/14 01:05:53;;;;;;;23.50;9.82;;;6.40;99.90;;;;;;20746274;28;20562;-41
2023/12/14 01:15:54;;;;;;;15.10;8.90;;;6.20;99.90;;;;;;20748231;28;20081;-41
2023/12/14 01:25:54;;;;;;;15.73;8.93;;;6.30;99.90;;;;;;20749033;28;20049;-41
2023/12/14 01:35:55;;;;;;;17.45;10.10;;;6.10;99.90;;;;;;20756538;28;20474;-41
2023/12/14 01:45:55;;;;;;;17.98;9.85;;;6.10;99.90;;;;;;20745888;28;20408;-41
2023/12/14 01:55:56;;;;;;;19.80;9.90;;;6.10;99.90;;;;;;20745353;28;20549;-41
2023/12/14 02:05:57;;;;;;;18.23;9.40;;;6.10;99.90;;;;;;20743578;28;20091;-41
2023/12/14 02:15:58;;;;;;;20.95;11.07;;;6.20;99.90;;;;;;20747482;28;20057;-41
2023/12/14 02:25:58;;;;;;;20.33;10.85;;;6.20;99.90;;;;;;20743519;28;20167;-42
2023/12/14 02:35:59;;;;;;;18.25;10.18;;;6.10;99.90;;;;;;20736375;28;20046;-40
2023/12/14 02:46:02;;;;;;;19.33;9.95;;;6.20;99.90;;;;;;20727903;28;20056;-40
2023/12/14 02:56:02;;;;;;;22.42;9.88;;;6.20;99.90;;;;;;20720915;28;20033;-41
2023/12/14 03:06:03;;;;;;;18.88;9.68;;;6.10;99.90;;;;;;20721336;28;20037;-40
2023/12/14 03:16:04;;;;;;;18.17;8.88;;;6.20;99.90;;;;;;20728491;28;20191;-40
2023/12/14 03:26:05;;;;;;;16.65;8.90;;;6.10;99.90;;;;;;20728622;28;20045;-40
2023/12/14 03:36:06;;;;;;;19.65;8.23;;;6.00;99.90;;;;;;20722285;28;20046;-41
2023/12/14 03:46:06;;;;;;;15.73;7.38;;;6.10;99.90;;;;;;20718480;28;20034;-41
2023/12/14 03:56:08;;;;;;;14.00;6.20;;;6.00;99.90;;;;;;20722505;28;20059;-42
2023/12/14 04:06:09;;;;;;;15.43;5.85;;;6.00;99.90;;;;;;20727944;28;20465;-41
2023/12/14 04:16:09;;;;;;;8.20;4.97;;;6.00;99.90;;;;;;20732846;28;20234;-41
2023/12/14 04:26:10;;;;;;;11.93;6.07;;;5.90;99.90;;;;;;20745680;28;20037;-40
2023/12/14 04:36:11;;;;;;;10.80;6.18;;;5.70;99.90;;;;;;20744518;28;20164;-40
2023/12/14 04:46:11;;;;;;;11.52;6.90;;;5.70;99.90;;;;;;20739738;28;20033;-40
2023/12/14 04:56:12;;;;;;;12.65;7.38;;;5.70;99.90;;;;;;20747610;28;20057;-41
2023/12/14 05:06:13;;;;;;;13.45;7.50;;;5.70;99.80;;;;;;20745130;28;20103;-40
2023/12/14 05:16:14;;;;;;;13.45;8.23;;;5.70;99.90;;;;;;20731351;28;20049;-41
2023/12/14 05:26:15;;;;;;;13.98;8.02;;;5.60;99.90;;;;;;20736704;28;20057;-40
2023/12/14 05:36:15;;;;;;;10.77;6.57;;;5.60;92.40;;;;;;20740013;28;20030;-40
2023/12/14 05:46:23;;;;;;;7.55;4.63;;;5.60;84.70;;;;;;20741092;28;20073;-40
2023/12/14 05:56:25;;;;;;;8.48;5.47;;;5.50;65.60;;;;;;20740311;28;20068;-41
2023/12/14 06:06:26;;;;;;;13.70;6.72;;;5.50;65.70;;;;;;20741109;28;20044;-40
2023/12/14 06:16:26;;;;;;;12.38;7.00;;;5.40;86.60;;;;;;20736114;28;20045;-40
2023/12/14 06:26:27;;;;;;;12.02;7.45;;;5.40;93.40;;;;;;20739023;28;20057;-40
2023/12/14 06:36:29;;;;;;;15.82;6.43;;;5.50;81.50;;;;;;20739607;28;20551;-41
2023/12/14 06:46:29;;;;;;;10.45;6.05;;;5.40;68.60;;;;;;20735997;28;20030;-40
2023/12/14 06:56:30;;;;;;;10.07;6.38;;;5.20;76.40;;;;;;20738401;28;20522;-41
2023/12/14 07:06:31;;;;;;;11.73;6.47;;;5.30;72.60;;;;;;20730701;28;20422;-41
2023/12/14 07:16:31;;;;;;;10.40;6.00;;;5.20;81.00;;;;;;20732091;28;20065;-40
2023/12/14 07:26:32;;;;;;;10.50;6.15;;;5.30;81.60;;;;;;20736075;28;20053;-40
2023/12/14 07:36:32;;;;;;;10.82;6.35;;;5.30;85.20;;;;;;20737511;28;20037;-41
2023/12/14 07:46:34;;;;;;;11.63;5.63;;;5.30;84.80;;;;;;20744238;28;20442;-40
2023/12/14 07:56:35;;;;;;;9.82;5.68;;;5.30;90.30;;;;;;20769942;28;20061;-40
2023/12/14 08:06:36;;;;;;;9.90;5.30;;;5.30;87.10;;;;;;20768704;28;20037;-41
2023/12/14 08:16:36;;;;;;;12.15;6.78;;;5.30;90.40;;;;;;20763118;28;20053;-41
2023/12/14 08:26:37;;;;;;;11.95;6.65;;;5.30;95.90;;;;;;20763788;28;20034;-41
2023/12/14 08:36:37;;;;;;;11.65;6.50;;;5.30;99.90;;;;;;20767012;28;20532;-42
2023/12/14 08:46:46;;;;;;;12.50;6.97;;;5.30;99.90;;;;;;20763498;28;20041;-40
2023/12/14 08:56:47;;;;;;;11.80;6.65;;;5.30;99.90;;;;;;20767487;28;20072;-40
2023/12/14 09:06:48;;;;;;;9.70;6.10;;;5.50;97.80;;;;;;20761200;28;20072;-40
2023/12/14 09:16:48;;;;;;;9.55;5.88;;;5.60;93.50;;;;;;20762193;28;20049;-40
2023/12/14 09:26:49;;;;;;;8.13;5.05;;;5.60;93.20;;;;;;20767298;28;20548;-40
2023/12/14 09:36:49;;;;;;;8.73;5.68;;;5.80;92.30;;;;;;20764050;28;20044;-41
2023/12/14 09:46:50;;;;;;;9.55;5.90;;;6.00;83.30;;;;;;20760500;28;20504;-40
2023/12/14 09:56:52;;;;;;;8.82;5.60;;;6.20;61.90;;;;;;20762349;28;20766;-40
2023/12/14 10:06:55;;;;;;;6.75;4.20;;;6.30;35.90;;;;;;20760665;28;20068;-40
2023/12/14 10:16:56;;;;;;;7.43;4.07;;;6.40;26.10;;;;;;20758177;28;20080;-41
2023/12/14 10:26:56;;;;;;;6.45;3.72;;;6.30;24.30;;;;;;20759549;28;20505;-40
2023/12/14 10:36:57;;;;;;;5.32;3.65;;;6.20;24.80;;;;;;20760411;28;20176;-40
2023/12/14 10:46:58;;;;;;;7.53;3.22;;;6.10;24.00;;;;;;20754089;28;20355;-41
2023/12/14 10:56:59;;;;;;;7.78;3.80;;;6.10;29.80;;;;;;20756895;28;20041;-40
2023/12/14 11:07:00;;;;;;;6.63;3.35;;;6.90;10.10;;;;;;20752636;28;20099;-40
2023/12/14 11:17:06;;;;;;;7.93;4.38;;;7.20;10.50;;;;;;20748741;28;20089;-41
2023/12/14 11:27:10;;;;;;;8.67;4.50;;;8.00;1.00;;;;;;20751753;28;20092;-41
2023/12/14 11:37:11;;;;;;;6.72;3.92;;;8.20;1.00;;;;;;20753869;28;20500;-41
2023/12/14 11:47:11;;;;;;;10.70;5.10;;;7.70;1.00;;;;;;20754538;28;20571;-41
2023/12/14 11:57:12;;;;;;;11.25;6.85;;;7.50;1.00;;;;;;20753351;28;20571;-41
2023/12/14 12:07:13;;;;;;;12.52;7.55;;;7.40;1.00;;;;;;20753860;28;20025;-40
2023/12/14 12:17:15;;;;;;;13.93;6.85;;;7.20;1.00;;;;;;20752925;28;20145;-41
2023/12/14 12:27:15;;;;;;;11.15;5.95;;;7.20;1.00;;;;;;20755515;28;20060;-53
2023/12/14 12:37:16;;;;;;;10.10;5.75;;;7.10;1.00;;;;;;20759154;28;20046;-41
2023/12/14 12:47:17;;;;;;;11.20;6.30;;;7.00;1.00;;;;;;20769679;28;20033;-40
2023/12/14 12:57:17;;;;;;;11.77;6.95;;;7.00;1.00;;;;;;20769291;28;20468;-41
2023/12/14 13:07:18;;;;;;;10.73;6.32;;;7.00;1.00;;;;;;20767366;28;20517;-42
2023/12/14 13:17:19;;;;;;;14.15;7.05;;;7.10;1.00;;;;;;20764646;28;20528;-41
2023/12/14 13:27:20;;;;;;;13.77;7.70;;;7.00;1.00;;;;;;20761888;28;20333;-42
2023/12/14 13:37:20;;;;;;;12.23;6.40;;;7.20;1.00;;;;;;20762897;28;20041;-42
2023/12/14 13:47:21;;;;;;;9.10;5.63;;;7.00;1.00;;;;;;20752007;28;20108;-41
2023/12/14 13:57:25;;;;;;;12.55;6.55;;;7.10;1.00;;;;;;20755794;28;20033;-42
2023/12/14 14:07:25;;;;;;;12.60;6.78;;;7.20;1.00;;;;;;20752162;28;20040;-41
2023/12/14 14:17:26;;;;;;;12.80;7.38;;;7.10;1.00;;;;;;20751893;28;20041;-41
2023/12/14 14:27:26;;;;;;;13.25;7.32;;;6.90;1.00;;;;;;20755566;28;20168;-41
2023/12/14 14:37:27;;;;;;;14.73;7.45;;;6.90;1.00;;;;;;20756605;28;20073;-41
2023/12/14 14:47:28;;;;;;;13.93;7.57;;;6.90;1.00;;;;;;20755555;28;20136;-41
2023/12/14 14:57:28;;;;;;;16.13;8.20;;;6.90;1.00;;;;;;20754981;28;20507;-41
2023/12/14 15:07:30;;;;;;;19.30;8.52;;;6.90;1.30;;;;;;20752557;28;20401;-41
2023/12/14 15:17:31;;;;;;;40.28;27.85;;;6.90;7.30;;;;;;20751049;28;20056;-41
2023/12/14 15:27:32;;;;;;;20.98;10.10;;;6.90;25.20;;;;;;20749834;28;20584;-41
2023/12/14 15:37:33;;;;;;;17.48;9.80;;;6.80;55.50;;;;;;20751411;28;20041;-41
2023/12/14 15:47:33;;;;;;;18.67;9.85;;;6.60;87.80;;;;;;20767814;28;20464;-41
2023/12/14 15:57:34;;;;;;;17.58;9.18;;;6.60;97.60;;;;;;20750202;28;20057;-39
2023/12/14 16:07:35;;;;;;;22.52;10.60;;;6.60;99.90;;;;;;20745408;28;20445;-40
2023/12/14 16:17:36;;;;;;;19.52;8.75;;;6.60;99.90;;;;;;20768383;28;20052;-39
2023/12/14 16:27:36;;;;;;;17.48;8.98;;;6.60;99.90;;;;;;20769099;28;20042;-40
2023/12/14 16:37:37;;;;;;;18.17;9.57;;;6.60;99.90;;;;;;20767550;28;20053;-39
2023/12/14 16:47:37;;;;;;;21.52;9.60;;;6.70;99.90;;;;;;20766275;28;20034;-39
2023/12/14 16:57:38;;;;;;;19.55;10.20;;;6.70;99.90;;;;;;20764745;28;20057;-40
2023/12/14 17:07:39;;;;;;;14.07;8.27;;;6.70;99.90;;;;;;20762828;28;20080;-40
2023/12/14 17:17:40;;;;;;;12.55;7.03;;;6.80;99.90;;;;;;20764830;28;20469;-40
2023/12/14 17:27:40;;;;;;;14.57;7.90;;;6.80;99.90;;;;;;20766657;28;20084;-40
2023/12/14 17:37:41;;;;;;;16.03;7.27;;;6.80;99.90;;;;;;20764221;28;20044;-41
2023/12/14 17:47:41;;;;;;;26.05;14.18;;;6.80;99.90;;;;;;20764313;28;20587;-40
2023/12/14 17:57:42;;;;;;;69.43;34.60;;;6.80;99.90;;;;;;20740534;28;20423;-40
2023/12/14 18:07:43;;;;;;;20.67;11.07;;;6.70;99.90;;;;;;20731344;28;20041;-40
2023/12/14 18:17:43;;;;;;;11.50;7.13;;;6.70;99.90;;;;;;20730987;28;20206;-40
2023/12/14 18:27:44;;;;;;;10.25;6.20;;;6.70;99.90;;;;;;20728302;28;20030;-40
2023/12/14 18:37:44;;;;;;;15.77;8.18;;;6.70;99.90;;;;;;20749966;28;20049;-40
2023/12/14 18:47:45;;;;;;;13.53;8.27;;;6.70;99.90;;;;;;20759045;28;20036;-40
2023/12/14 18:57:46;;;;;;;11.95;6.88;;;6.70;99.90;;;;;;20754310;28;20050;-40
2023/12/14 19:07:47;;;;;;;17.90;6.53;;;6.70;99.90;;;;;;20756185;28;20037;-40
2023/12/14 19:17:47;;;;;;;9.83;5.30;;;6.70;99.90;;;;;;20759522;28;20053;-40
2023/12/14 19:27:51;;;;;;;13.43;5.18;;;6.90;99.90;;;;;;20759530;28;20574;-40
2023/12/14 19:37:52;;;;;;;11.27;4.55;;;6.90;99.90;;;;;;20758382;28;20041;-40
2023/12/14 19:47:53;;;;;;;11.60;4.73;;;6.90;99.90;;;;;;20767009;28;20037;-40
2023/12/14 19:57:53;;;;;;;8.95;4.15;;;7.10;93.30;;;;;;20775887;28;20465;-40
2023/12/14 20:07:54;;;;;;;10.20;4.80;;;7.00;76.50;;;;;;20775914;28;20034;-41
2023/12/14 20:17:55;;;;;;;8.82;3.90;;;7.00;79.60;;;;;;20766954;28;20624;-41
2023/12/14 20:27:55;;;;;;;8.23;3.60;;;7.10;73.90;;;;;;20771810;28;20041;-40
2023/12/14 20:37:56;;;;;;;7.53;3.10;;;7.20;54.30;;;;;;20769284;28;20029;-41
2023/12/14 20:47:57;;;;;;;10.57;4.13;;;7.20;46.20;;;;;;20764276;28;20448;-40
2023/12/14 20:57:57;;;;;;;9.18;4.03;;;7.00;66.60;;;;;;20761960;28;20073;-40
2023/12/14 21:07:58;;;;;;;11.45;4.53;;;7.00;78.30;;;;;;20757738;28;20092;-40
2023/12/14 21:17:58;;;;;;;13.00;4.75;;;7.00;78.00;;;;;;20759811;28;20064;-41
2023/12/14 21:28:00;;;;;;;9.07;4.40;;;7.00;80.70;;;;;;20757530;28;20513;-41
2023/12/14 21:38:00;;;;;;;10.98;4.10;;;7.10;85.00;;;;;;20756155;28;20049;-41
2023/12/14 21:48:01;;;;;;;9.63;3.97;;;7.20;68.80;;;;;;20755832;28;20125;-41
2023/12/14 21:58:01;;;;;;;9.52;4.25;;;7.20;67.10;;;;;;20757305;28;20043;-41
2023/12/14 22:08:02;;;;;;;10.65;4.13;;;7.30;63.50;;;;;;20760991;28;20507;-41
2023/12/14 22:18:03;;;;;;;8.45;4.57;;;7.20;59.20;;;;;;20759972;28;20459;-41
2023/12/14 22:28:04;;;;;;;10.65;5.18;;;7.30;73.00;;;;;;20758101;28;20402;-40
2023/12/14 22:38:04;;;;;;;12.90;6.40;;;7.30;79.30;;;;;;20761688;28;20517;-40
2023/12/14 22:48:05;;;;;;;12.27;6.88;;;7.50;77.20;;;;;;20758006;28;20477;-40
2023/12/14 22:58:06;;;;;;;16.70;8.85;;;7.50;83.90;;;;;;20755135;28;20140;-42
2023/12/14 23:08:06;;;;;;;16.05;8.63;;;7.70;94.70;;;;;;20756626;28;20033;-40
2023/12/14 23:18:07;;;;;;;18.77;9.73;;;7.60;96.70;;;;;;20754157;28;20049;-42
2023/12/14 23:28:07;;;;;;;24.85;11.10;;;7.80;94.20;;;;;;20756528;28;20064;-40
2023/12/14 23:38:08;;;;;;;25.50;13.63;;;7.70;96.20;;;;;;20751775;28;20038;-40
2023/12/14 23:48:09;;;;;;;34.90;16.25;;;7.60;99.90;;;;;;20745370;28;20045;-42
2023/12/14 23:58:09;;;;;;;32.22;16.33;;;7.70;99.90;;;;;;20749988;28;20071;-42
